createdAt,value
2023-04-09T00:00:00.576Z,1.6
2023-04-09T00:04:00.813Z,1.6
2023-04-09T00:08:00.725Z,1.4
2023-04-09T00:12:01.133Z,1.4
2023-04-09T00:16:00.658Z,1.4
2023-04-09T00:20:00.849Z,1.2
2023-04-09T00:24:00.598Z,1.2
2023-04-09T00:28:00.756Z,1.1
2023-04-09T00:32:00.865Z,1.1
2023-04-09T00:36:00.830Z,1.1
2023-04-09T00:40:00.871Z,0.8
2023-04-09T00:44:00.747Z,0.8
2023-04-09T00:48:00.816Z,0.6
2023-04-09T00:52:00.752Z,0.6
2023-04-09T00:56:01.481Z,0.6
2023-04-09T01:00:00.630Z,0.5
2023-04-09T01:04:00.815Z,0.5
2023-04-09T01:08:09.496Z,0.4
2023-04-09T01:12:05.875Z,0.4
2023-04-09T01:16:02.229Z,0.4
2023-04-09T01:20:04.164Z,0.4
2023-04-09T01:24:08.925Z,0.4
2023-04-09T01:28:10.388Z,0.2
2023-04-09T01:32:01.344Z,0.2
2023-04-09T01:36:01.667Z,0.2
2023-04-09T01:40:00.959Z,0.2
2023-04-09T01:44:02.584Z,0.2
2023-04-09T01:48:01.355Z,0.1
2023-04-09T01:52:01.168Z,0.1
2023-04-09T01:56:01.010Z,0.1
2023-04-09T02:00:00.714Z,0
2023-04-09T02:04:02.175Z,0
2023-04-09T02:08:01.857Z,-0.1
2023-04-09T02:12:02.240Z,-0.1
2023-04-09T02:16:01.079Z,-0.1
2023-04-09T02:20:00.734Z,-0.1
2023-04-09T02:24:00.600Z,-0.1
2023-04-09T02:28:00.727Z,-0.3
2023-04-09T02:32:00.681Z,-0.3
2023-04-09T02:36:00.615Z,-0.3
2023-04-09T02:40:00.637Z,-0.3
2023-04-09T02:44:00.799Z,-0.3
2023-04-09T02:48:00.780Z,-0.3
2023-04-09T02:52:00.695Z,-0.3
2023-04-09T02:56:00.656Z,-0.3
2023-04-09T03:00:00.621Z,-0.4
2023-04-09T03:04:01.160Z,-0.4
2023-04-09T03:08:01.589Z,-0.4
2023-04-09T03:12:01.062Z,-0.4
2023-04-09T03:16:00.738Z,-0.4
2023-04-09T03:20:00.716Z,-0.5
2023-04-09T03:24:01.245Z,-0.5
2023-04-09T03:28:00.667Z,-0.5
2023-04-09T03:32:00.693Z,-0.5
2023-04-09T03:36:00.674Z,-0.5
2023-04-09T03:40:00.837Z,-0.6
2023-04-09T03:44:00.627Z,-0.6
2023-04-09T03:48:00.676Z,-0.7
2023-04-09T03:52:00.675Z,-0.7
2023-04-09T03:56:01.986Z,-0.7
2023-04-09T04:00:00.594Z,-0.7
2023-04-09T04:04:00.781Z,-0.7
2023-04-09T04:08:00.710Z,-0.8
2023-04-09T04:12:01.088Z,-0.8
2023-04-09T04:16:00.735Z,-0.8
2023-04-09T04:20:00.803Z,-0.9
2023-04-09T04:24:00.594Z,-0.9
2023-04-09T04:28:00.735Z,-1
2023-04-09T04:32:00.775Z,-1
2023-04-09T04:36:05.510Z,-1
2023-04-09T04:40:01.226Z,-1.1
2023-04-09T04:44:00.777Z,-1.1
2023-04-09T04:48:00.637Z,-1.1
2023-04-09T04:52:00.822Z,-1.1
2023-04-09T04:56:00.707Z,-1.1
2023-04-09T05:00:00.656Z,-1.2
2023-04-09T05:04:02.224Z,-1.2
2023-04-09T05:08:00.719Z,-1.3
2023-04-09T05:12:00.701Z,-1.3
2023-04-09T05:16:00.696Z,-1.3
2023-04-09T05:20:00.712Z,-1.3
2023-04-09T05:24:00.757Z,-1.3
2023-04-09T05:28:00.676Z,-1.2
2023-04-09T05:32:00.871Z,-1.2
2023-04-09T05:36:00.655Z,-1.2
2023-04-09T05:40:00.820Z,-1.2
2023-04-09T05:44:01.094Z,-1.2
2023-04-09T05:48:00.789Z,-1.1
2023-04-09T05:52:00.719Z,-1.1
2023-04-09T05:56:00.712Z,-1.1
2023-04-09T06:00:00.629Z,-1.1
2023-04-09T06:04:00.847Z,-1.1
2023-04-09T06:08:00.857Z,-1
2023-04-09T06:12:01.522Z,-1
2023-04-09T06:16:02.821Z,-1
2023-04-09T06:20:00.718Z,-1
2023-04-09T06:24:00.561Z,-1
2023-04-09T06:28:00.736Z,-0.9
2023-04-09T06:32:00.728Z,-0.9
2023-04-09T06:36:00.814Z,-0.9
2023-04-09T06:40:01.690Z,-0.7
2023-04-09T06:44:00.733Z,-0.7
2023-04-09T06:48:00.771Z,-0.4
2023-04-09T06:52:01.116Z,-0.4
2023-04-09T06:56:00.707Z,-0.4
2023-04-09T07:00:00.689Z,0.1
2023-04-09T07:04:00.703Z,0.1
2023-04-09T07:08:00.812Z,0.6
2023-04-09T07:12:00.570Z,0.6
2023-04-09T07:16:00.760Z,0.6
2023-04-09T07:20:00.936Z,1.1
2023-04-09T07:24:00.988Z,1.1
2023-04-09T07:28:00.685Z,1.6
2023-04-09T07:32:01.813Z,1.6
2023-04-09T07:36:00.736Z,1.6
2023-04-09T07:40:02.983Z,2.1
2023-04-09T07:44:02.447Z,2.1
2023-04-09T07:48:00.968Z,2.6
2023-04-09T07:52:00.744Z,2.6
2023-04-09T07:56:00.772Z,2.6
2023-04-09T08:00:00.697Z,3
2023-04-09T08:04:01.384Z,3
2023-04-09T08:08:00.666Z,3.5
2023-04-09T08:12:00.920Z,3.5
2023-04-09T08:16:01.334Z,3.5
2023-04-09T08:20:00.767Z,4
2023-04-09T08:24:03.500Z,4
2023-04-09T08:28:00.732Z,4.4
2023-04-09T08:32:00.734Z,4.4
2023-04-09T08:36:02.750Z,4.4
2023-04-09T08:40:00.714Z,4.7
2023-04-09T08:44:01.040Z,4.7
2023-04-09T08:48:02.762Z,5.1
2023-04-09T08:52:01.151Z,5.1
2023-04-09T08:56:00.728Z,5.1
2023-04-09T09:00:00.622Z,5.4
2023-04-09T09:04:02.936Z,5.4
2023-04-09T09:08:00.883Z,5.7
2023-04-09T09:12:01.412Z,5.7
2023-04-09T09:16:10.410Z,5.7
2023-04-09T09:20:12.052Z,5.9
2023-04-09T09:24:01.417Z,5.9
2023-04-09T09:28:06.191Z,6.2
2023-04-09T09:32:00.788Z,6.2
2023-04-09T09:36:02.773Z,6.2
2023-04-09T09:40:00.789Z,6.5
2023-04-09T09:44:01.093Z,6.5
2023-04-09T09:48:02.032Z,6.7
2023-04-09T09:52:02.486Z,6.7
2023-04-09T09:56:01.449Z,6.7
2023-04-09T10:00:01.907Z,6.9
2023-04-09T10:04:01.715Z,6.9
2023-04-09T10:08:01.985Z,7.2
2023-04-09T10:12:03.988Z,7.2
2023-04-09T10:16:01.313Z,7.2
2023-04-09T10:20:04.442Z,7.5
2023-04-09T10:24:04.809Z,7.5
2023-04-09T10:28:01.276Z,7.6
2023-04-09T10:32:03.683Z,7.6
2023-04-09T10:36:03.484Z,7.6
2023-04-09T10:40:02.563Z,7.8
2023-04-09T10:44:05.082Z,7.8
2023-04-09T10:48:02.086Z,8.2
2023-04-09T10:52:01.311Z,8.2
2023-04-09T10:56:00.596Z,8.2
2023-04-09T11:00:00.781Z,8.6
2023-04-09T11:04:10.581Z,8.6
2023-04-09T11:08:03.366Z,8.6
2023-04-09T11:12:01.047Z,8.6
2023-04-09T11:16:02.988Z,8.6
2023-04-09T11:20:01.650Z,8.8
2023-04-09T11:24:00.684Z,8.8
2023-04-09T11:28:03.040Z,8.9
2023-04-09T11:32:01.572Z,8.9
2023-04-09T11:36:03.651Z,8.9
2023-04-09T11:40:00.752Z,9.2
2023-04-09T11:44:01.472Z,9.2
2023-04-09T11:48:01.375Z,9.5
2023-04-09T11:52:03.042Z,9.5
2023-04-09T11:56:00.725Z,9.5
2023-04-09T12:00:05.409Z,9.6
2023-04-09T12:04:00.969Z,9.6
2023-04-09T12:08:01.351Z,9.8
2023-04-09T12:12:01.411Z,9.8
2023-04-09T12:16:02.503Z,9.8
2023-04-09T12:20:01.266Z,9.9
2023-04-09T12:24:00.655Z,9.9
2023-04-09T12:28:01.118Z,10.3
2023-04-09T12:32:00.760Z,10.3
2023-04-09T12:36:00.965Z,10.3
2023-04-09T12:40:00.924Z,10.7
2023-04-09T12:44:00.665Z,10.7
2023-04-09T12:48:00.709Z,10.7
2023-04-09T12:52:00.646Z,10.7
2023-04-09T12:56:00.885Z,10.7
2023-04-09T13:00:00.702Z,10.8
2023-04-09T13:04:00.711Z,10.8
2023-04-09T13:08:01.495Z,10.9
2023-04-09T13:12:01.082Z,10.9
2023-04-09T13:16:01.249Z,10.9
2023-04-09T13:20:00.903Z,11
2023-04-09T13:24:00.743Z,11
2023-04-09T13:28:00.689Z,11.2
2023-04-09T13:32:05.837Z,11.2
2023-04-09T13:36:00.957Z,11.2
2023-04-09T13:40:00.801Z,11
2023-04-09T13:44:00.892Z,11
2023-04-09T13:48:00.747Z,10.9
2023-04-09T13:52:00.670Z,10.9
2023-04-09T13:56:00.740Z,10.9
2023-04-09T14:00:03.604Z,11
2023-04-09T14:04:01.014Z,11
2023-04-09T14:08:00.768Z,11.1
2023-04-09T14:12:00.934Z,11.1
2023-04-09T14:16:00.835Z,11.1
2023-04-09T14:20:02.763Z,11.4
2023-04-09T14:24:00.706Z,11.4
2023-04-09T14:28:00.870Z,12.1
2023-04-09T14:32:00.635Z,12.1
2023-04-09T14:36:00.727Z,12.1
2023-04-09T14:40:00.705Z,12.7
2023-04-09T14:44:00.650Z,12.7
2023-04-09T14:48:00.743Z,13
2023-04-09T14:52:00.772Z,13
2023-04-09T14:56:00.651Z,13
2023-04-09T15:00:00.969Z,13.2
2023-04-09T15:04:00.894Z,13.2
2023-04-09T15:08:00.708Z,13.2
2023-04-09T15:12:00.961Z,13.2
2023-04-09T15:16:00.831Z,13.2
2023-04-09T15:20:00.653Z,12.9
2023-04-09T15:24:01.354Z,12.9
2023-04-09T15:28:00.790Z,12.9
2023-04-09T15:32:01.118Z,12.9
2023-04-09T15:36:00.748Z,12.9
2023-04-09T15:40:00.659Z,13
2023-04-09T15:44:00.562Z,13
2023-04-09T15:48:00.888Z,12.7
2023-04-09T15:52:00.725Z,12.7
2023-04-09T15:56:01.227Z,12.7
2023-04-09T16:00:00.853Z,12.3
2023-04-09T16:04:00.844Z,12.3
2023-04-09T16:08:01.184Z,12
2023-04-09T16:12:01.817Z,12
2023-04-09T16:16:00.657Z,12
2023-04-09T16:20:00.841Z,11.6
2023-04-09T16:24:00.698Z,11.6
2023-04-09T16:28:00.907Z,11.5
2023-04-09T16:32:00.737Z,11.5
2023-04-09T16:36:00.885Z,11.5
2023-04-09T16:40:01.081Z,11.3
2023-04-09T16:44:00.688Z,11.3
2023-04-09T16:48:00.777Z,11.3
2023-04-09T16:52:00.978Z,11.3
2023-04-09T16:56:00.618Z,11.3
2023-04-09T17:00:01.887Z,11.1
2023-04-09T17:04:02.162Z,11.1
2023-04-09T17:08:00.832Z,11
2023-04-09T17:12:00.825Z,11
2023-04-09T17:16:01.621Z,11
2023-04-09T17:20:00.643Z,11
2023-04-09T17:24:01.868Z,11
2023-04-09T17:28:00.761Z,10.9
2023-04-09T17:32:00.617Z,10.9
2023-04-09T17:36:00.758Z,10.9
2023-04-09T17:40:00.731Z,10.7
2023-04-09T17:44:00.623Z,10.7
2023-04-09T17:48:01.784Z,10.5
2023-04-09T17:52:00.680Z,10.5
2023-04-09T17:56:02.907Z,10.5
2023-04-09T18:00:01.169Z,10.1
2023-04-09T18:04:01.136Z,10.1
2023-04-09T18:08:01.608Z,9.8
2023-04-09T18:12:01.662Z,9.8
2023-04-09T18:16:00.998Z,9.8
2023-04-09T18:20:00.779Z,9.6
2023-04-09T18:24:00.682Z,9.6
2023-04-09T18:28:00.688Z,9.2
2023-04-09T18:32:00.688Z,9.2
2023-04-09T18:36:00.888Z,9.2
2023-04-09T18:40:02.412Z,8.9
2023-04-09T18:44:00.854Z,8.9
2023-04-09T18:48:00.734Z,8.6
2023-04-09T18:52:01.287Z,8.6
2023-04-09T18:56:00.567Z,8.6
2023-04-09T19:00:02.673Z,8.3
2023-04-09T19:04:00.857Z,8.3
2023-04-09T19:08:01.193Z,8
2023-04-09T19:12:00.827Z,8
2023-04-09T19:16:01.195Z,8
2023-04-09T19:20:01.949Z,7.7
2023-04-09T19:24:02.304Z,7.7
2023-04-09T19:28:00.638Z,7.4
2023-04-09T19:32:00.692Z,7.4
2023-04-09T19:36:00.840Z,7.4
2023-04-09T19:40:03.424Z,7.2
2023-04-09T19:44:00.727Z,7.2
2023-04-09T19:48:00.819Z,6.9
2023-04-09T19:52:01.209Z,6.9
2023-04-09T19:56:01.226Z,6.9
2023-04-09T20:00:00.880Z,6.7
2023-04-09T20:04:01.224Z,6.7
2023-04-09T20:08:00.716Z,6.6
2023-04-09T20:12:05.392Z,6.6
2023-04-09T20:16:00.777Z,6.6
2023-04-09T20:20:00.653Z,6.3
2023-04-09T20:24:01.579Z,6.3
2023-04-09T20:28:02.560Z,6
2023-04-09T20:32:01.227Z,6
2023-04-09T20:36:00.913Z,6
2023-04-09T20:40:00.712Z,5.7
2023-04-09T20:44:00.637Z,5.7
2023-04-09T20:48:01.296Z,5.6
2023-04-09T20:52:00.706Z,5.6
2023-04-09T20:56:01.140Z,5.6
2023-04-09T21:00:00.643Z,5.4
2023-04-09T21:04:00.843Z,5.4
2023-04-09T21:08:00.771Z,4.8
2023-04-09T21:12:01.917Z,4.8
2023-04-09T21:16:01.638Z,4.8
2023-04-09T21:20:00.773Z,4.7
2023-04-09T21:24:00.703Z,4.7
2023-04-09T21:28:00.695Z,4.5
2023-04-09T21:32:00.809Z,4.5
2023-04-09T21:36:02.499Z,4.5
2023-04-09T21:40:00.610Z,4.4
2023-04-09T21:44:07.029Z,4.4
2023-04-09T21:48:00.801Z,4.2
2023-04-09T21:52:00.826Z,4.2
2023-04-09T21:56:01.792Z,4.2
2023-04-09T22:00:00.698Z,4
2023-04-09T22:04:01.206Z,4
2023-04-09T22:08:00.734Z,3.9
2023-04-09T22:12:01.822Z,3.9
2023-04-09T22:16:00.683Z,3.9
2023-04-09T22:20:00.721Z,3.7
2023-04-09T22:24:00.566Z,3.7
2023-04-09T22:28:00.933Z,3.6
2023-04-09T22:32:02.654Z,3.6
2023-04-09T22:36:00.721Z,3.6
2023-04-09T22:40:00.744Z,3.5
2023-04-09T22:44:00.968Z,3.5
2023-04-09T22:48:00.877Z,3.5
2023-04-09T22:52:00.669Z,3.5
2023-04-09T22:56:01.098Z,3.5
2023-04-09T23:00:00.753Z,3.3
2023-04-09T23:04:00.996Z,3.3
2023-04-09T23:08:00.740Z,3.2
2023-04-09T23:12:00.596Z,3.2
2023-04-09T23:16:03.177Z,3.2
2023-04-09T23:20:00.765Z,3.2
2023-04-09T23:24:00.672Z,3.2
2023-04-09T23:28:00.648Z,3
2023-04-09T23:32:00.723Z,3
2023-04-09T23:36:00.645Z,3
2023-04-09T23:40:00.686Z,2.9
2023-04-09T23:44:00.672Z,2.9
2023-04-09T23:48:01.929Z,2.9
2023-04-09T23:52:00.661Z,2.9
2023-04-09T23:56:00.772Z,2.9
